sensor_id;sensor_type;location;lat;lon;timestamp;P1;durP1;ratioP1;P2;durP2;ratioP2
83513;SDS011;73447;53.262;10.424;2024-01-10T00:01:31;25.58;;;13.48;;
83513;SDS011;73447;53.262;10.424;2024-01-10T00:03:56;22.52;;;12.93;;
83513;SDS011;73447;53.262;10.424;2024-01-10T00:06:22;27.48;;;13.45;;
83513;SDS011;73447;53.262;10.424;2024-01-10T00:08:49;33.67;;;14.95;;
83513;SDS011;73447;53.262;10.424;2024-01-10T00:11:14;22.80;;;12.82;;
83513;SDS011;73447;53.262;10.424;2024-01-10T00:13:40;29.63;;;15.80;;
83513;SDS011;73447;53.262;10.424;2024-01-10T00:16:05;28.88;;;14.07;;
83513;SDS011;73447;53.262;10.424;2024-01-10T00:18:31;24.55;;;12.80;;
83513;SDS011;73447;53.262;10.424;2024-01-10T00:20:56;23.35;;;13.30;;
83513;SDS011;73447;53.262;10.424;2024-01-10T00:23:22;27.10;;;14.70;;
83513;SDS011;73447;53.262;10.424;2024-01-10T00:25:48;26.50;;;13.65;;
83513;SDS011;73447;53.262;10.424;2024-01-10T00:28:14;31.95;;;13.85;;
83513;SDS011;73447;53.262;10.424;2024-01-10T00:30:41;27.00;;;13.25;;
83513;SDS011;73447;53.262;10.424;2024-01-10T00:33:07;29.83;;;14.98;;
83513;SDS011;73447;53.262;10.424;2024-01-10T00:35:32;32.13;;;13.65;;
83513;SDS011;73447;53.262;10.424;2024-01-10T00:37:58;26.20;;;12.98;;
83513;SDS011;73447;53.262;10.424;2024-01-10T00:40:23;28.27;;;13.40;;
83513;SDS011;73447;53.262;10.424;2024-01-10T00:42:48;29.98;;;15.30;;
83513;SDS011;73447;53.262;10.424;2024-01-10T00:45:14;28.05;;;13.88;;
83513;SDS011;73447;53.262;10.424;2024-01-10T00:47:40;26.15;;;13.38;;
83513;SDS011;73447;53.262;10.424;2024-01-10T00:50:06;28.10;;;14.18;;
83513;SDS011;73447;53.262;10.424;2024-01-10T00:52:31;31.38;;;15.40;;
83513;SDS011;73447;53.262;10.424;2024-01-10T00:54:57;26.17;;;13.82;;
83513;SDS011;73447;53.262;10.424;2024-01-10T00:57:22;29.23;;;14.65;;
83513;SDS011;73447;53.262;10.424;2024-01-10T00:59:48;30.02;;;15.35;;
83513;SDS011;73447;53.262;10.424;2024-01-10T01:02:13;28.73;;;13.50;;
83513;SDS011;73447;53.262;10.424;2024-01-10T01:04:38;29.10;;;14.75;;
83513;SDS011;73447;53.262;10.424;2024-01-10T01:07:04;35.17;;;15.85;;
83513;SDS011;73447;53.262;10.424;2024-01-10T01:09:29;35.55;;;15.20;;
83513;SDS011;73447;53.262;10.424;2024-01-10T01:11:54;32.35;;;16.45;;
83513;SDS011;73447;53.262;10.424;2024-01-10T01:14:20;29.80;;;15.02;;
83513;SDS011;73447;53.262;10.424;2024-01-10T01:16:45;33.42;;;15.88;;
83513;SDS011;73447;53.262;10.424;2024-01-10T01:19:11;27.63;;;14.15;;
83513;SDS011;73447;53.262;10.424;2024-01-10T01:21:36;24.55;;;13.85;;
83513;SDS011;73447;53.262;10.424;2024-01-10T01:24:02;31.55;;;14.43;;
83513;SDS011;73447;53.262;10.424;2024-01-10T01:26:28;30.00;;;14.30;;
83513;SDS011;73447;53.262;10.424;2024-01-10T01:28:54;28.30;;;13.90;;
83513;SDS011;73447;53.262;10.424;2024-01-10T01:31:19;33.63;;;14.45;;
83513;SDS011;73447;53.262;10.424;2024-01-10T01:33:44;31.60;;;14.15;;
83513;SDS011;73447;53.262;10.424;2024-01-10T01:36:10;28.75;;;13.32;;
83513;SDS011;73447;53.262;10.424;2024-01-10T01:38:35;27.73;;;14.05;;
83513;SDS011;73447;53.262;10.424;2024-01-10T01:41:01;27.30;;;14.32;;
83513;SDS011;73447;53.262;10.424;2024-01-10T01:43:27;24.90;;;14.15;;
83513;SDS011;73447;53.262;10.424;2024-01-10T01:45:54;27.75;;;13.57;;
83513;SDS011;73447;53.262;10.424;2024-01-10T01:48:22;30.30;;;14.20;;
83513;SDS011;73447;53.262;10.424;2024-01-10T01:50:50;30.10;;;13.88;;
83513;SDS011;73447;53.262;10.424;2024-01-10T01:53:18;29.85;;;14.63;;
83513;SDS011;73447;53.262;10.424;2024-01-10T01:55:44;36.80;;;14.68;;
83513;SDS011;73447;53.262;10.424;2024-01-10T01:58:11;33.40;;;14.60;;
83513;SDS011;73447;53.262;10.424;2024-01-10T02:00:37;26.67;;;14.13;;
83513;SDS011;73447;53.262;10.424;2024-01-10T02:03:07;30.27;;;14.75;;
83513;SDS011;73447;53.262;10.424;2024-01-10T02:05:34;36.00;;;14.77;;
83513;SDS011;73447;53.262;10.424;2024-01-10T02:07:59;26.73;;;12.85;;
83513;SDS011;73447;53.262;10.424;2024-01-10T02:10:24;29.50;;;13.73;;
83513;SDS011;73447;53.262;10.424;2024-01-10T02:12:50;30.75;;;14.75;;
83513;SDS011;73447;53.262;10.424;2024-01-10T02:15:15;28.98;;;15.13;;
83513;SDS011;73447;53.262;10.424;2024-01-10T02:17:42;28.35;;;13.73;;
83513;SDS011;73447;53.262;10.424;2024-01-10T02:20:14;26.17;;;14.77;;
83513;SDS011;73447;53.262;10.424;2024-01-10T02:22:43;32.30;;;14.32;;
83513;SDS011;73447;53.262;10.424;2024-01-10T02:25:09;28.70;;;14.07;;
83513;SDS011;73447;53.262;10.424;2024-01-10T02:27:36;30.73;;;14.98;;
83513;SDS011;73447;53.262;10.424;2024-01-10T02:30:02;29.38;;;14.13;;
83513;SDS011;73447;53.262;10.424;2024-01-10T02:32:29;28.15;;;14.48;;
83513;SDS011;73447;53.262;10.424;2024-01-10T02:34:54;30.70;;;13.40;;
83513;SDS011;73447;53.262;10.424;2024-01-10T02:37:20;28.67;;;14.18;;
83513;SDS011;73447;53.262;10.424;2024-01-10T02:39:45;28.52;;;13.55;;
83513;SDS011;73447;53.262;10.424;2024-01-10T02:42:11;33.28;;;15.73;;
83513;SDS011;73447;53.262;10.424;2024-01-10T02:44:36;28.95;;;14.38;;
83513;SDS011;73447;53.262;10.424;2024-01-10T02:47:01;26.42;;;13.32;;
83513;SDS011;73447;53.262;10.424;2024-01-10T02:49:27;25.25;;;11.57;;
83513;SDS011;73447;53.262;10.424;2024-01-10T02:51:52;26.90;;;13.88;;
83513;SDS011;73447;53.262;10.424;2024-01-10T02:54:18;28.27;;;13.48;;
83513;SDS011;73447;53.262;10.424;2024-01-10T02:56:43;29.35;;;13.13;;
83513;SDS011;73447;53.262;10.424;2024-01-10T02:59:08;24.23;;;12.98;;
83513;SDS011;73447;53.262;10.424;2024-01-10T03:01:34;26.30;;;12.57;;
83513;SDS011;73447;53.262;10.424;2024-01-10T03:03:59;25.80;;;12.13;;
83513;SDS011;73447;53.262;10.424;2024-01-10T03:06:24;29.02;;;13.00;;
83513;SDS011;73447;53.262;10.424;2024-01-10T03:08:50;25.20;;;12.27;;
83513;SDS011;73447;53.262;10.424;2024-01-10T03:11:16;32.53;;;14.77;;
83513;SDS011;73447;53.262;10.424;2024-01-10T03:13:43;24.17;;;12.32;;
83513;SDS011;73447;53.262;10.424;2024-01-10T03:16:10;27.17;;;13.25;;
83513;SDS011;73447;53.262;10.424;2024-01-10T03:18:36;25.60;;;13.10;;
83513;SDS011;73447;53.262;10.424;2024-01-10T03:21:01;25.10;;;12.57;;
83513;SDS011;73447;53.262;10.424;2024-01-10T03:23:27;26.42;;;13.18;;
83513;SDS011;73447;53.262;10.424;2024-01-10T03:25:52;30.63;;;12.95;;
83513;SDS011;73447;53.262;10.424;2024-01-10T03:28:18;28.67;;;13.48;;
83513;SDS011;73447;53.262;10.424;2024-01-10T03:30:43;30.10;;;12.52;;
83513;SDS011;73447;53.262;10.424;2024-01-10T03:33:09;30.23;;;13.50;;
83513;SDS011;73447;53.262;10.424;2024-01-10T03:35:35;28.88;;;14.07;;
83513;SDS011;73447;53.262;10.424;2024-01-10T03:38:00;24.58;;;12.50;;
83513;SDS011;73447;53.262;10.424;2024-01-10T03:40:26;28.40;;;12.85;;
83513;SDS011;73447;53.262;10.424;2024-01-10T03:42:51;27.10;;;12.70;;
83513;SDS011;73447;53.262;10.424;2024-01-10T03:45:17;26.65;;;13.13;;
83513;SDS011;73447;53.262;10.424;2024-01-10T03:47:45;28.55;;;13.88;;
83513;SDS011;73447;53.262;10.424;2024-01-10T03:50:15;30.08;;;12.65;;
83513;SDS011;73447;53.262;10.424;2024-01-10T03:52:40;26.85;;;12.73;;
83513;SDS011;73447;53.262;10.424;2024-01-10T03:55:06;30.38;;;14.13;;
83513;SDS011;73447;53.262;10.424;2024-01-10T03:57:31;29.25;;;13.15;;
83513;SDS011;73447;53.262;10.424;2024-01-10T03:59:57;26.35;;;12.55;;
83513;SDS011;73447;53.262;10.424;2024-01-10T04:02:22;26.95;;;11.88;;
83513;SDS011;73447;53.262;10.424;2024-01-10T04:04:48;26.13;;;12.43;;
83513;SDS011;73447;53.262;10.424;2024-01-10T04:07:13;25.20;;;12.52;;
83513;SDS011;73447;53.262;10.424;2024-01-10T04:09:38;28.23;;;12.30;;
83513;SDS011;73447;53.262;10.424;2024-01-10T04:12:04;29.75;;;13.88;;
83513;SDS011;73447;53.262;10.424;2024-01-10T04:14:29;30.33;;;14.07;;
83513;SDS011;73447;53.262;10.424;2024-01-10T04:16:55;37.83;;;15.38;;
83513;SDS011;73447;53.262;10.424;2024-01-10T04:19:20;28.17;;;13.52;;
83513;SDS011;73447;53.262;10.424;2024-01-10T04:21:46;32.53;;;14.50;;
83513;SDS011;73447;53.262;10.424;2024-01-10T04:24:11;33.22;;;14.82;;
83513;SDS011;73447;53.262;10.424;2024-01-10T04:26:37;31.90;;;13.80;;
83513;SDS011;73447;53.262;10.424;2024-01-10T04:29:02;34.47;;;15.48;;
83513;SDS011;73447;53.262;10.424;2024-01-10T04:31:27;29.95;;;14.27;;
83513;SDS011;73447;53.262;10.424;2024-01-10T04:33:53;28.92;;;13.63;;
83513;SDS011;73447;53.262;10.424;2024-01-10T04:36:18;36.47;;;16.77;;
83513;SDS011;73447;53.262;10.424;2024-01-10T04:38:44;29.98;;;14.38;;
83513;SDS011;73447;53.262;10.424;2024-01-10T04:41:09;30.77;;;14.70;;
83513;SDS011;73447;53.262;10.424;2024-01-10T04:43:34;28.90;;;13.90;;
83513;SDS011;73447;53.262;10.424;2024-01-10T04:46:00;33.40;;;15.30;;
83513;SDS011;73447;53.262;10.424;2024-01-10T04:48:25;24.75;;;12.63;;
83513;SDS011;73447;53.262;10.424;2024-01-10T04:50:50;28.70;;;13.50;;
83513;SDS011;73447;53.262;10.424;2024-01-10T04:53:16;26.33;;;14.05;;
83513;SDS011;73447;53.262;10.424;2024-01-10T04:55:41;27.08;;;13.68;;
83513;SDS011;73447;53.262;10.424;2024-01-10T04:58:07;33.90;;;13.60;;
83513;SDS011;73447;53.262;10.424;2024-01-10T05:00:33;33.63;;;15.82;;
83513;SDS011;73447;53.262;10.424;2024-01-10T05:02:58;28.60;;;13.63;;
83513;SDS011;73447;53.262;10.424;2024-01-10T05:05:23;30.80;;;14.68;;
83513;SDS011;73447;53.262;10.424;2024-01-10T05:07:49;31.30;;;14.60;;
83513;SDS011;73447;53.262;10.424;2024-01-10T05:10:15;30.63;;;14.65;;
83513;SDS011;73447;53.262;10.424;2024-01-10T05:12:41;31.92;;;15.77;;
83513;SDS011;73447;53.262;10.424;2024-01-10T05:15:07;33.25;;;14.55;;
83513;SDS011;73447;53.262;10.424;2024-01-10T05:17:33;37.72;;;16.08;;
83513;SDS011;73447;53.262;10.424;2024-01-10T05:19:58;33.67;;;16.17;;
83513;SDS011;73447;53.262;10.424;2024-01-10T05:22:24;33.85;;;13.77;;
83513;SDS011;73447;53.262;10.424;2024-01-10T05:24:50;32.78;;;15.57;;
83513;SDS011;73447;53.262;10.424;2024-01-10T05:27:15;33.50;;;15.98;;
83513;SDS011;73447;53.262;10.424;2024-01-10T05:29:41;31.40;;;14.82;;
83513;SDS011;73447;53.262;10.424;2024-01-10T05:32:06;31.77;;;15.05;;
83513;SDS011;73447;53.262;10.424;2024-01-10T05:34:32;32.95;;;14.07;;
83513;SDS011;73447;53.262;10.424;2024-01-10T05:36:57;32.42;;;13.45;;
83513;SDS011;73447;53.262;10.424;2024-01-10T05:39:22;28.80;;;14.02;;
83513;SDS011;73447;53.262;10.424;2024-01-10T05:41:48;32.05;;;15.10;;
83513;SDS011;73447;53.262;10.424;2024-01-10T05:44:13;29.27;;;14.88;;
83513;SDS011;73447;53.262;10.424;2024-01-10T05:46:39;32.20;;;16.73;;
83513;SDS011;73447;53.262;10.424;2024-01-10T05:49:05;30.80;;;13.30;;
83513;SDS011;73447;53.262;10.424;2024-01-10T05:51:32;30.20;;;14.13;;
83513;SDS011;73447;53.262;10.424;2024-01-10T05:53:57;30.02;;;13.50;;
83513;SDS011;73447;53.262;10.424;2024-01-10T05:56:23;32.47;;;14.10;;
83513;SDS011;73447;53.262;10.424;2024-01-10T05:58:48;28.83;;;13.75;;
83513;SDS011;73447;53.262;10.424;2024-01-10T06:01:17;29.30;;;13.55;;
83513;SDS011;73447;53.262;10.424;2024-01-10T06:03:42;29.83;;;13.88;;
83513;SDS011;73447;53.262;10.424;2024-01-10T06:06:08;34.40;;;13.50;;
83513;SDS011;73447;53.262;10.424;2024-01-10T06:08:34;33.97;;;13.10;;
83513;SDS011;73447;53.262;10.424;2024-01-10T06:11:02;28.15;;;13.45;;
83513;SDS011;73447;53.262;10.424;2024-01-10T06:13:28;30.98;;;12.10;;
83513;SDS011;73447;53.262;10.424;2024-01-10T06:15:54;32.70;;;13.60;;
83513;SDS011;73447;53.262;10.424;2024-01-10T06:18:19;31.77;;;13.93;;
83513;SDS011;73447;53.262;10.424;2024-01-10T06:20:44;33.05;;;14.43;;
83513;SDS011;73447;53.262;10.424;2024-01-10T06:23:10;29.77;;;13.30;;
83513;SDS011;73447;53.262;10.424;2024-01-10T06:25:35;34.63;;;14.05;;
83513;SDS011;73447;53.262;10.424;2024-01-10T06:28:00;29.15;;;13.82;;
83513;SDS011;73447;53.262;10.424;2024-01-10T06:30:26;31.48;;;13.63;;
83513;SDS011;73447;53.262;10.424;2024-01-10T06:32:51;25.38;;;12.40;;
83513;SDS011;73447;53.262;10.424;2024-01-10T06:35:17;28.50;;;13.30;;
83513;SDS011;73447;53.262;10.424;2024-01-10T06:37:42;28.60;;;13.23;;
83513;SDS011;73447;53.262;10.424;2024-01-10T06:40:09;30.45;;;13.57;;
83513;SDS011;73447;53.262;10.424;2024-01-10T06:42:35;28.23;;;12.35;;
83513;SDS011;73447;53.262;10.424;2024-01-10T06:45:00;26.67;;;12.63;;
83513;SDS011;73447;53.262;10.424;2024-01-10T06:47:26;27.90;;;12.75;;
83513;SDS011;73447;53.262;10.424;2024-01-10T06:49:51;27.10;;;12.73;;
83513;SDS011;73447;53.262;10.424;2024-01-10T06:52:17;28.27;;;12.68;;
83513;SDS011;73447;53.262;10.424;2024-01-10T06:54:42;30.10;;;12.48;;
83513;SDS011;73447;53.262;10.424;2024-01-10T06:57:07;26.70;;;12.23;;
83513;SDS011;73447;53.262;10.424;2024-01-10T06:59:33;28.88;;;12.32;;
83513;SDS011;73447;53.262;10.424;2024-01-10T07:01:58;23.73;;;10.55;;
83513;SDS011;73447;53.262;10.424;2024-01-10T07:04:26;26.95;;;11.32;;
83513;SDS011;73447;53.262;10.424;2024-01-10T07:06:52;25.80;;;11.35;;
83513;SDS011;73447;53.262;10.424;2024-01-10T07:09:18;24.52;;;10.60;;
83513;SDS011;73447;53.262;10.424;2024-01-10T07:11:47;26.25;;;11.60;;
83513;SDS011;73447;53.262;10.424;2024-01-10T07:14:13;26.67;;;11.18;;
83513;SDS011;73447;53.262;10.424;2024-01-10T07:16:41;24.75;;;11.30;;
83513;SDS011;73447;53.262;10.424;2024-01-10T07:19:11;25.10;;;10.07;;
83513;SDS011;73447;53.262;10.424;2024-01-10T07:21:40;25.30;;;10.98;;
83513;SDS011;73447;53.262;10.424;2024-01-10T07:24:06;22.60;;;9.70;;
83513;SDS011;73447;53.262;10.424;2024-01-10T07:26:33;24.00;;;11.07;;
83513;SDS011;73447;53.262;10.424;2024-01-10T07:28:59;26.50;;;11.57;;
83513;SDS011;73447;53.262;10.424;2024-01-10T07:31:27;31.33;;;11.98;;
83513;SDS011;73447;53.262;10.424;2024-01-10T07:33:54;26.17;;;11.82;;
83513;SDS011;73447;53.262;10.424;2024-01-10T07:36:21;29.40;;;12.07;;
83513;SDS011;73447;53.262;10.424;2024-01-10T07:38:48;27.90;;;11.40;;
83513;SDS011;73447;53.262;10.424;2024-01-10T07:41:13;31.23;;;12.05;;
83513;SDS011;73447;53.262;10.424;2024-01-10T07:43:39;29.50;;;11.75;;
83513;SDS011;73447;53.262;10.424;2024-01-10T07:46:04;26.65;;;11.10;;
83513;SDS011;73447;53.262;10.424;2024-01-10T07:48:30;27.77;;;12.35;;
83513;SDS011;73447;53.262;10.424;2024-01-10T07:50:56;26.85;;;10.90;;
83513;SDS011;73447;53.262;10.424;2024-01-10T07:53:21;26.50;;;11.02;;
83513;SDS011;73447;53.262;10.424;2024-01-10T07:55:47;27.05;;;11.48;;
83513;SDS011;73447;53.262;10.424;2024-01-10T07:58:12;31.27;;;12.07;;
83513;SDS011;73447;53.262;10.424;2024-01-10T08:00:38;27.63;;;12.02;;
83513;SDS011;73447;53.262;10.424;2024-01-10T08:03:03;28.17;;;12.50;;
83513;SDS011;73447;53.262;10.424;2024-01-10T08:05:29;29.08;;;12.85;;
83513;SDS011;73447;53.262;10.424;2024-01-10T08:07:54;33.83;;;13.35;;
83513;SDS011;73447;53.262;10.424;2024-01-10T08:10:21;31.40;;;12.27;;
83513;SDS011;73447;53.262;10.424;2024-01-10T08:12:46;27.30;;;11.93;;
83513;SDS011;73447;53.262;10.424;2024-01-10T08:15:12;32.53;;;13.43;;
83513;SDS011;73447;53.262;10.424;2024-01-10T08:17:39;36.25;;;12.43;;
83513;SDS011;73447;53.262;10.424;2024-01-10T08:20:07;29.15;;;11.40;;
83513;SDS011;73447;53.262;10.424;2024-01-10T08:22:35;25.23;;;11.23;;
83513;SDS011;73447;53.262;10.424;2024-01-10T08:25:01;31.35;;;12.07;;
83513;SDS011;73447;53.262;10.424;2024-01-10T08:27:27;28.75;;;11.32;;
83513;SDS011;73447;53.262;10.424;2024-01-10T08:29:53;28.05;;;11.73;;
83513;SDS011;73447;53.262;10.424;2024-01-10T08:32:18;30.10;;;11.80;;
83513;SDS011;73447;53.262;10.424;2024-01-10T08:34:46;32.47;;;13.60;;
83513;SDS011;73447;53.262;10.424;2024-01-10T08:37:12;29.20;;;11.90;;
83513;SDS011;73447;53.262;10.424;2024-01-10T08:39:38;32.40;;;13.20;;
83513;SDS011;73447;53.262;10.424;2024-01-10T08:42:03;29.88;;;12.05;;
83513;SDS011;73447;53.262;10.424;2024-01-10T08:44:29;27.42;;;11.55;;
83513;SDS011;73447;53.262;10.424;2024-01-10T08:46:54;29.60;;;12.82;;
83513;SDS011;73447;53.262;10.424;2024-01-10T08:49:20;30.35;;;11.82;;
83513;SDS011;73447;53.262;10.424;2024-01-10T08:51:45;33.28;;;13.10;;
83513;SDS011;73447;53.262;10.424;2024-01-10T08:54:11;26.83;;;11.45;;
83513;SDS011;73447;53.262;10.424;2024-01-10T08:56:42;29.13;;;12.75;;
83513;SDS011;73447;53.262;10.424;2024-01-10T08:59:09;30.33;;;12.80;;
83513;SDS011;73447;53.262;10.424;2024-01-10T09:01:35;32.47;;;12.70;;
83513;SDS011;73447;53.262;10.424;2024-01-10T09:04:01;25.85;;;10.73;;
83513;SDS011;73447;53.262;10.424;2024-01-10T09:06:26;29.58;;;12.10;;
83513;SDS011;73447;53.262;10.424;2024-01-10T09:08:52;28.80;;;11.85;;
83513;SDS011;73447;53.262;10.424;2024-01-10T09:11:17;26.23;;;12.00;;
83513;SDS011;73447;53.262;10.424;2024-01-10T09:13:42;29.55;;;11.68;;
83513;SDS011;73447;53.262;10.424;2024-01-10T09:16:08;35.28;;;13.45;;
83513;SDS011;73447;53.262;10.424;2024-01-10T09:18:34;29.35;;;12.10;;
83513;SDS011;73447;53.262;10.424;2024-01-10T09:21:00;33.03;;;12.57;;
83513;SDS011;73447;53.262;10.424;2024-01-10T09:23:25;40.05;;;14.85;;
83513;SDS011;73447;53.262;10.424;2024-01-10T09:25:52;34.42;;;13.95;;
83513;SDS011;73447;53.262;10.424;2024-01-10T09:28:17;41.08;;;13.10;;
83513;SDS011;73447;53.262;10.424;2024-01-10T09:30:43;39.15;;;13.95;;
83513;SDS011;73447;53.262;10.424;2024-01-10T09:33:09;34.55;;;13.20;;
83513;SDS011;73447;53.262;10.424;2024-01-10T09:35:34;40.30;;;14.52;;
83513;SDS011;73447;53.262;10.424;2024-01-10T09:37:59;33.22;;;13.40;;
83513;SDS011;73447;53.262;10.424;2024-01-10T09:40:25;28.52;;;12.18;;
83513;SDS011;73447;53.262;10.424;2024-01-10T09:42:53;29.45;;;12.35;;
83513;SDS011;73447;53.262;10.424;2024-01-10T09:45:22;29.85;;;12.20;;
83513;SDS011;73447;53.262;10.424;2024-01-10T09:47:52;24.42;;;10.30;;
83513;SDS011;73447;53.262;10.424;2024-01-10T09:50:19;26.67;;;11.75;;
83513;SDS011;73447;53.262;10.424;2024-01-10T09:53:07;26.27;;;10.93;;
83513;SDS011;73447;53.262;10.424;2024-01-10T09:55:34;28.35;;;10.98;;
83513;SDS011;73447;53.262;10.424;2024-01-10T09:58:02;29.33;;;11.70;;
83513;SDS011;73447;53.262;10.424;2024-01-10T10:00:31;27.25;;;11.85;;
83513;SDS011;73447;53.262;10.424;2024-01-10T10:02:59;32.78;;;12.40;;
83513;SDS011;73447;53.262;10.424;2024-01-10T10:05:25;28.38;;;10.70;;
83513;SDS011;73447;53.262;10.424;2024-01-10T10:07:52;25.48;;;10.93;;
83513;SDS011;73447;53.262;10.424;2024-01-10T10:10:20;25.70;;;10.50;;
83513;SDS011;73447;53.262;10.424;2024-01-10T10:12:47;25.60;;;11.63;;
83513;SDS011;73447;53.262;10.424;2024-01-10T10:15:14;25.95;;;11.05;;
83513;SDS011;73447;53.262;10.424;2024-01-10T10:17:42;28.50;;;11.18;;
83513;SDS011;73447;53.262;10.424;2024-01-10T10:20:28;26.90;;;10.95;;
83513;SDS011;73447;53.262;10.424;2024-01-10T10:23:01;28.65;;;12.18;;
83513;SDS011;73447;53.262;10.424;2024-01-10T10:25:29;31.88;;;11.90;;
83513;SDS011;73447;53.262;10.424;2024-01-10T10:27:55;23.33;;;10.70;;
83513;SDS011;73447;53.262;10.424;2024-01-10T10:30:20;28.90;;;11.38;;
83513;SDS011;73447;53.262;10.424;2024-01-10T10:32:45;28.40;;;12.15;;
83513;SDS011;73447;53.262;10.424;2024-01-10T10:35:11;35.53;;;12.57;;
83513;SDS011;73447;53.262;10.424;2024-01-10T10:37:36;31.58;;;13.18;;
83513;SDS011;73447;53.262;10.424;2024-01-10T10:40:02;27.75;;;12.57;;
83513;SDS011;73447;53.262;10.424;2024-01-10T10:42:27;26.58;;;11.52;;
83513;SDS011;73447;53.262;10.424;2024-01-10T10:44:54;29.98;;;11.32;;
83513;SDS011;73447;53.262;10.424;2024-01-10T10:47:26;30.75;;;12.10;;
83513;SDS011;73447;53.262;10.424;2024-01-10T10:49:55;27.02;;;11.02;;
83513;SDS011;73447;53.262;10.424;2024-01-10T10:52:22;27.27;;;11.27;;
83513;SDS011;73447;53.262;10.424;2024-01-10T10:54:49;20.98;;;9.75;;
83513;SDS011;73447;53.262;10.424;2024-01-10T10:57:16;26.38;;;11.30;;
83513;SDS011;73447;53.262;10.424;2024-01-10T10:59:43;32.03;;;12.57;;
83513;SDS011;73447;53.262;10.424;2024-01-10T11:02:10;28.92;;;12.70;;
83513;SDS011;73447;53.262;10.424;2024-01-10T11:04:36;29.58;;;11.60;;
83513;SDS011;73447;53.262;10.424;2024-01-10T11:07:02;26.92;;;11.60;;
83513;SDS011;73447;53.262;10.424;2024-01-10T11:09:28;24.02;;;10.15;;
83513;SDS011;73447;53.262;10.424;2024-01-10T11:26:02;25.65;;;9.52;;
83513;SDS011;73447;53.262;10.424;2024-01-10T11:28:30;25.10;;;11.60;;
83513;SDS011;73447;53.262;10.424;2024-01-10T11:30:56;23.90;;;9.30;;
83513;SDS011;73447;53.262;10.424;2024-01-10T11:33:22;20.73;;;9.82;;
83513;SDS011;73447;53.262;10.424;2024-01-10T11:38:42;23.90;;;10.13;;
83513;SDS011;73447;53.262;10.424;2024-01-10T11:46:33;21.55;;;10.43;;
83513;SDS011;73447;53.262;10.424;2024-01-10T11:48:59;24.85;;;11.13;;
83513;SDS011;73447;53.262;10.424;2024-01-10T11:51:25;24.65;;;9.45;;
83513;SDS011;73447;53.262;10.424;2024-01-10T11:53:51;20.42;;;9.35;;
83513;SDS011;73447;53.262;10.424;2024-01-10T11:56:18;21.42;;;8.80;;
83513;SDS011;73447;53.262;10.424;2024-01-10T11:58:53;22.27;;;9.93;;
83513;SDS011;73447;53.262;10.424;2024-01-10T12:01:29;19.75;;;8.73;;
83513;SDS011;73447;53.262;10.424;2024-01-10T12:03:55;18.45;;;8.30;;
83513;SDS011;73447;53.262;10.424;2024-01-10T12:06:21;20.75;;;9.40;;
83513;SDS011;73447;53.262;10.424;2024-01-10T12:08:47;22.17;;;8.75;;
83513;SDS011;73447;53.262;10.424;2024-01-10T12:11:13;17.67;;;7.78;;
83513;SDS011;73447;53.262;10.424;2024-01-10T12:13:40;20.35;;;8.48;;
83513;SDS011;73447;53.262;10.424;2024-01-10T12:16:06;16.13;;;7.32;;
83513;SDS011;73447;53.262;10.424;2024-01-10T12:18:31;19.48;;;8.32;;
83513;SDS011;73447;53.262;10.424;2024-01-10T12:20:57;20.02;;;8.23;;
83513;SDS011;73447;53.262;10.424;2024-01-10T12:23:22;18.42;;;8.52;;
83513;SDS011;73447;53.262;10.424;2024-01-10T12:25:48;18.98;;;9.15;;
83513;SDS011;73447;53.262;10.424;2024-01-10T12:28:17;20.13;;;8.40;;
83513;SDS011;73447;53.262;10.424;2024-01-10T12:30:42;21.75;;;8.88;;
83513;SDS011;73447;53.262;10.424;2024-01-10T12:33:09;20.60;;;8.68;;
83513;SDS011;73447;53.262;10.424;2024-01-10T12:35:34;23.98;;;9.73;;
83513;SDS011;73447;53.262;10.424;2024-01-10T12:38:00;19.45;;;9.13;;
83513;SDS011;73447;53.262;10.424;2024-01-10T12:40:25;19.77;;;8.63;;
83513;SDS011;73447;53.262;10.424;2024-01-10T12:43:04;21.45;;;9.07;;
83513;SDS011;73447;53.262;10.424;2024-01-10T12:45:29;20.20;;;8.57;;
83513;SDS011;73447;53.262;10.424;2024-01-10T12:47:55;20.88;;;9.85;;
83513;SDS011;73447;53.262;10.424;2024-01-10T12:50:25;20.75;;;8.98;;
83513;SDS011;73447;53.262;10.424;2024-01-10T12:52:50;21.73;;;8.82;;
83513;SDS011;73447;53.262;10.424;2024-01-10T12:55:16;24.08;;;9.82;;
83513;SDS011;73447;53.262;10.424;2024-01-10T12:57:42;21.63;;;8.65;;
83513;SDS011;73447;53.262;10.424;2024-01-10T13:00:08;21.90;;;9.85;;
83513;SDS011;73447;53.262;10.424;2024-01-10T13:02:36;21.65;;;9.18;;
83513;SDS011;73447;53.262;10.424;2024-01-10T13:05:05;22.50;;;9.85;;
83513;SDS011;73447;53.262;10.424;2024-01-10T13:07:37;20.90;;;8.93;;
83513;SDS011;73447;53.262;10.424;2024-01-10T13:10:02;21.70;;;10.13;;
83513;SDS011;73447;53.262;10.424;2024-01-10T13:12:28;20.35;;;8.35;;
83513;SDS011;73447;53.262;10.424;2024-01-10T13:14:53;19.23;;;9.07;;
83513;SDS011;73447;53.262;10.424;2024-01-10T13:17:19;22.95;;;9.13;;
83513;SDS011;73447;53.262;10.424;2024-01-10T13:19:45;18.40;;;8.85;;
83513;SDS011;73447;53.262;10.424;2024-01-10T13:22:16;23.55;;;9.90;;
83513;SDS011;73447;53.262;10.424;2024-01-10T13:24:44;26.35;;;10.00;;
83513;SDS011;73447;53.262;10.424;2024-01-10T13:27:10;19.58;;;10.00;;
83513;SDS011;73447;53.262;10.424;2024-01-10T13:29:36;24.05;;;9.75;;
83513;SDS011;73447;53.262;10.424;2024-01-10T13:32:02;24.15;;;9.85;;
83513;SDS011;73447;53.262;10.424;2024-01-10T13:34:28;23.77;;;9.52;;
83513;SDS011;73447;53.262;10.424;2024-01-10T13:36:54;21.73;;;10.07;;
83513;SDS011;73447;53.262;10.424;2024-01-10T13:39:19;20.63;;;9.98;;
83513;SDS011;73447;53.262;10.424;2024-01-10T13:41:44;25.30;;;10.43;;
83513;SDS011;73447;53.262;10.424;2024-01-10T13:44:10;20.00;;;9.50;;
83513;SDS011;73447;53.262;10.424;2024-01-10T13:46:35;21.50;;;9.90;;
83513;SDS011;73447;53.262;10.424;2024-01-10T13:49:01;21.92;;;9.45;;
83513;SDS011;73447;53.262;10.424;2024-01-10T13:51:26;22.88;;;10.18;;
83513;SDS011;73447;53.262;10.424;2024-01-10T13:53:52;26.98;;;10.82;;
83513;SDS011;73447;53.262;10.424;2024-01-10T13:56:17;23.20;;;10.65;;
83513;SDS011;73447;53.262;10.424;2024-01-10T13:58:43;25.25;;;9.95;;
83513;SDS011;73447;53.262;10.424;2024-01-10T14:01:08;19.67;;;9.43;;
83513;SDS011;73447;53.262;10.424;2024-01-10T14:03:34;25.05;;;9.85;;
83513;SDS011;73447;53.262;10.424;2024-01-10T14:05:59;24.83;;;10.23;;
83513;SDS011;73447;53.262;10.424;2024-01-10T14:08:25;22.90;;;10.95;;
83513;SDS011;73447;53.262;10.424;2024-01-10T14:10:50;21.23;;;9.80;;
83513;SDS011;73447;53.262;10.424;2024-01-10T14:13:16;23.42;;;10.10;;
83513;SDS011;73447;53.262;10.424;2024-01-10T14:15:41;22.38;;;10.13;;
83513;SDS011;73447;53.262;10.424;2024-01-10T14:18:07;20.17;;;9.50;;
83513;SDS011;73447;53.262;10.424;2024-01-10T14:20:32;28.80;;;10.48;;
83513;SDS011;73447;53.262;10.424;2024-01-10T14:22:58;23.23;;;10.18;;
83513;SDS011;73447;53.262;10.424;2024-01-10T14:25:24;26.45;;;11.48;;
83513;SDS011;73447;53.262;10.424;2024-01-10T14:27:51;23.65;;;10.68;;